Time;durP1;ratioP1;P1;durP2;ratioP2;P2;SDS_P1;SDS_P2;PMS_P1;PMS_P2;Temp;Humidity;BMP_temperature;BMP_pressure;BME280_temperature;BME280_humidity;BME280_pressure;Samples;Min_cycle;Max_cycle;Signal;HPM_P1;HPM_P2
2023/07/29 00:01:35;;;;;;;0.30;0.30;;;23.10;62.50;;;;;;5105389;28;20185;-84
2023/07/29 00:04:04;;;;;;;1.52;1.27;;;23.10;62.70;;;;;;5112785;28;20847;-84
2023/07/29 00:06:33;;;;;;;1.65;1.48;;;23.00;62.70;;;;;;5090282;28;20197;-83
2023/07/29 00:09:02;;;;;;;2.30;1.00;;;23.00;62.90;;;;;;5102457;28;20188;-83
2023/07/29 00:11:33;;;;;;;0.60;0.40;;;23.00;63.20;;;;;;5109366;27;20667;-83
2023/07/29 00:14:03;;;;;;;1.08;0.45;;;23.00;63.20;;;;;;5108751;27;20193;-82
2023/07/29 00:16:33;;;;;;;2.40;1.40;;;22.90;63.90;;;;;;5109092;28;20189;-84
2023/07/29 00:19:04;;;;;;;0.30;0.30;;;22.90;63.10;;;;;;5109930;28;21006;-84
2023/07/29 00:21:32;;;;;;;0.22;0.22;;;22.90;63.00;;;;;;5109585;27;20221;-84
2023/07/29 00:24:01;;;;;;;0.90;0.90;;;22.90;63.10;;;;;;5110190;28;20217;-83
2023/07/29 00:26:30;;;;;;;0.73;0.73;;;22.90;63.30;;;;;;5092147;28;20197;-84
2023/07/29 00:28:59;;;;;;;0.85;0.65;;;22.80;63.50;;;;;;5081161;28;20205;-83
2023/07/29 00:31:29;;;;;;;0.57;0.50;;;22.80;63.60;;;;;;5110792;28;20836;-83
2023/07/29 00:33:58;;;;;;;0.40;0.40;;;22.80;63.70;;;;;;5111048;28;20208;-83
2023/07/29 00:36:26;;;;;;;0.63;0.63;;;22.80;63.80;;;;;;5109004;28;20337;-84
2023/07/29 00:38:56;;;;;;;0.70;0.60;;;22.70;63.80;;;;;;5110897;28;20687;-84
2023/07/29 00:41:27;;;;;;;1.25;1.15;;;22.70;63.80;;;;;;5110967;28;20400;-84
2023/07/29 00:43:56;;;;;;;0.50;0.50;;;22.70;63.90;;;;;;5110902;28;20574;-84
2023/07/29 00:46:25;;;;;;;0.47;0.47;;;22.70;63.90;;;;;;5110441;28;20687;-82
2023/07/29 00:48:56;;;;;;;0.38;0.38;;;22.70;64.20;;;;;;5110318;28;20717;-81
2023/07/29 00:51:25;;;;;;;0.30;0.30;;;22.60;64.70;;;;;;5107586;27;20268;-81
2023/07/29 00:53:54;;;;;;;3.17;0.70;;;22.60;64.70;;;;;;5110720;28;20208;-82
2023/07/29 00:56:22;;;;;;;1.85;0.85;;;22.60;65.30;;;;;;5110589;28;20193;-83
2023/07/29 00:58:58;;;;;;;1.60;0.50;;;22.50;65.20;;;;;;5107020;28;20784;-82
2023/07/29 01:01:27;;;;;;;0.20;0.20;;;22.50;65.50;;;;;;5103057;28;20651;-84
2023/07/29 01:03:57;;;;;;;0.30;0.30;;;22.50;65.60;;;;;;5101062;28;20273;-84
2023/07/29 01:06:37;;;;;;;1.38;1.02;;;22.50;65.60;;;;;;5109530;28;20231;-84
2023/07/29 01:09:10;;;;;;;0.95;0.73;;;22.40;65.50;;;;;;5092336;28;20281;-83
2023/07/29 01:11:48;;;;;;;0.30;0.30;;;22.50;65.60;;;;;;5106135;28;20200;-83
2023/07/29 01:14:26;;;;;;;0.30;0.30;;;22.40;65.60;;;;;;5104808;27;20636;-84
2023/07/29 01:17:00;;;;;;;0.63;0.40;;;22.40;65.70;;;;;;5109148;28;20193;-83
2023/07/29 01:19:44;;;;;;;0.57;0.45;;;22.40;65.80;;;;;;5107815;28;20181;-83
2023/07/29 01:22:14;;;;;;;1.05;1.05;;;22.40;65.90;;;;;;5111265;28;20203;-83
2023/07/29 01:24:44;;;;;;;0.68;0.52;;;22.40;65.80;;;;;;5108000;28;20213;-83
2023/07/29 01:27:13;;;;;;;0.60;0.50;;;22.40;65.90;;;;;;5110687;28;20230;-83
2023/07/29 01:29:41;;;;;;;0.22;0.22;;;22.40;66.00;;;;;;5110761;28;20603;-82
2023/07/29 01:32:16;;;;;;;0.60;0.60;;;22.40;65.90;;;;;;5092716;28;20196;-83
2023/07/29 01:34:52;;;;;;;0.30;0.30;;;22.40;65.90;;;;;;5108088;28;20252;-83
2023/07/29 01:37:26;;;;;;;0.20;0.20;;;22.40;66.00;;;;;;5109464;28;20189;-84
2023/07/29 01:40:00;;;;;;;1.17;0.85;;;22.40;66.00;;;;;;5106731;28;20204;-82
2023/07/29 01:42:30;;;;;;;1.55;1.05;;;22.30;66.20;;;;;;5107043;27;20208;-84
2023/07/29 01:44:59;;;;;;;4.05;0.70;;;22.30;66.30;;;;;;5108322;28;20209;-83
2023/07/29 01:47:27;;;;;;;0.57;0.57;;;22.30;66.70;;;;;;5110340;28;20204;-84
2023/07/29 01:49:56;;;;;;;1.05;0.95;;;22.30;67.10;;;;;;5105509;28;20643;-83
2023/07/29 01:52:25;;;;;;;0.50;0.35;;;22.30;66.90;;;;;;5109216;28;20700;-83
2023/07/29 01:54:56;;;;;;;1.15;0.75;;;22.20;67.80;;;;;;5099476;28;20205;-83
2023/07/29 01:57:24;;;;;;;0.35;0.35;;;22.20;66.90;;;;;;5111705;28;20653;-83
2023/07/29 01:59:52;;;;;;;2.72;1.70;;;22.20;67.10;;;;;;5105046;28;20238;-83
2023/07/29 02:02:21;;;;;;;1.02;0.80;;;22.10;67.30;;;;;;5110373;27;20197;-84
2023/07/29 02:04:52;;;;;;;1.08;0.63;;;22.20;67.30;;;;;;5107069;28;20213;-83
2023/07/29 02:07:20;;;;;;;0.63;0.57;;;22.10;67.80;;;;;;5110369;28;20249;-84
2023/07/29 02:09:49;;;;;;;0.30;0.25;;;22.10;67.70;;;;;;5107244;28;20192;-84
2023/07/29 02:12:19;;;;;;;0.40;0.40;;;22.10;67.90;;;;;;5107505;28;20194;-83
2023/07/29 02:14:48;;;;;;;0.22;0.22;;;22.10;67.80;;;;;;5108151;28;20200;-83
2023/07/29 02:17:18;;;;;;;0.30;0.30;;;22.10;67.80;;;;;;5105301;28;20204;-83
2023/07/29 02:19:46;;;;;;;0.40;0.32;;;22.10;68.10;;;;;;5104470;28;20311;-84
2023/07/29 02:22:17;;;;;;;0.63;0.63;;;22.00;68.00;;;;;;5107268;28;20221;-83
2023/07/29 02:24:46;;;;;;;2.25;1.33;;;22.00;68.10;;;;;;5107841;28;20439;-83
2023/07/29 02:27:15;;;;;;;0.50;0.50;;;22.00;68.10;;;;;;5087974;28;20262;-82
2023/07/29 02:29:45;;;;;;;0.60;0.60;;;22.00;68.60;;;;;;5108600;28;20193;-82
2023/07/29 02:32:13;;;;;;;0.55;0.38;;;22.00;68.60;;;;;;5108740;28;20212;-84
2023/07/29 02:34:42;;;;;;;0.20;0.20;;;21.90;68.80;;;;;;5109136;28;20227;-84
2023/07/29 02:37:10;;;;;;;3.50;1.63;;;21.90;68.80;;;;;;5107837;28;20247;-83
2023/07/29 02:39:39;;;;;;;1.55;0.63;;;21.90;69.70;;;;;;5105644;27;20703;-82
2023/07/29 02:42:08;;;;;;;0.30;0.30;;;21.90;69.70;;;;;;5102144;28;20294;-84
2023/07/29 02:44:36;;;;;;;2.00;0.40;;;21.80;69.60;;;;;;5102622;28;20516;-84
2023/07/29 02:47:06;;;;;;;0.60;0.60;;;21.80;69.60;;;;;;5107086;28;20204;-82
2023/07/29 02:49:35;;;;;;;0.77;0.47;;;21.80;70.00;;;;;;5108083;28;20276;-83
2023/07/29 02:52:03;;;;;;;2.08;0.70;;;21.80;70.50;;;;;;5107547;28;20563;-83
2023/07/29 02:54:33;;;;;;;2.67;1.00;;;21.70;71.30;;;;;;5107529;28;20188;-81
2023/07/29 02:57:01;;;;;;;0.50;0.50;;;21.70;71.40;;;;;;5105210;28;20189;-82
2023/07/29 02:59:31;;;;;;;4.95;0.75;;;21.60;71.50;;;;;;5107075;28;20238;-82
2023/07/29 03:01:59;;;;;;;0.32;0.32;;;21.60;71.20;;;;;;5107300;28;20200;-82
2023/07/29 03:04:30;;;;;;;1.00;0.52;;;21.60;71.00;;;;;;5105257;28;20201;-82
2023/07/29 03:07:01;;;;;;;1.00;0.67;;;21.60;71.00;;;;;;5084788;28;20608;-84
2023/07/29 03:09:30;;;;;;;0.50;0.50;;;21.60;70.90;;;;;;5101211;28;20641;-83
2023/07/29 03:11:59;;;;;;;1.33;0.70;;;21.50;70.90;;;;;;5105203;28;20199;-82
2023/07/29 03:14:28;;;;;;;1.50;0.60;;;21.50;70.90;;;;;;5107329;28;20627;-84
2023/07/29 03:16:56;;;;;;;0.40;0.40;;;21.50;70.90;;;;;;5106560;28;20717;-83
2023/07/29 03:19:25;;;;;;;0.30;0.30;;;21.50;70.80;;;;;;5086867;28;20634;-83
2023/07/29 03:21:55;;;;;;;0.53;0.30;;;21.50;70.90;;;;;;5085808;28;20645;-82
2023/07/29 03:24:24;;;;;;;0.50;0.50;;;21.50;70.80;;;;;;5105884;28;20197;-83
2023/07/29 03:26:53;;;;;;;0.50;0.50;;;21.50;70.90;;;;;;5108544;28;20209;-83
2023/07/29 03:29:21;;;;;;;0.33;0.33;;;21.50;70.90;;;;;;5097665;28;20185;-81
2023/07/29 03:31:50;;;;;;;0.50;0.50;;;21.50;71.10;;;;;;5107220;28;20197;-84
2023/07/29 03:34:19;;;;;;;1.73;0.47;;;21.40;71.20;;;;;;5105734;28;20204;-83
2023/07/29 03:36:50;;;;;;;0.43;0.40;;;21.50;71.20;;;;;;5099895;28;20732;-84
2023/07/29 03:39:20;;;;;;;1.13;0.60;;;21.40;71.10;;;;;;5108537;28;20189;-83
2023/07/29 03:41:49;;;;;;;0.50;0.50;;;21.50;71.70;;;;;;5108206;28;20192;-83
2023/07/29 03:44:18;;;;;;;2.17;0.80;;;21.50;71.80;;;;;;5108718;28;20200;-83
2023/07/29 03:46:46;;;;;;;2.65;0.47;;;21.40;72.70;;;;;;5105604;28;20216;-81
2023/07/29 03:49:15;;;;;;;1.63;0.75;;;21.50;71.80;;;;;;5102175;28;20581;-81
2023/07/29 03:51:44;;;;;;;0.30;0.30;;;21.50;72.00;;;;;;5083858;28;20193;-83
2023/07/29 03:54:13;;;;;;;1.35;0.77;;;21.50;72.30;;;;;;5102812;28;20189;-81
2023/07/29 03:56:43;;;;;;;0.50;0.50;;;21.50;72.30;;;;;;5086332;28;20197;-83
2023/07/29 03:59:11;;;;;;;0.40;0.40;;;21.50;72.90;;;;;;5106698;28;20208;-83
2023/07/29 04:01:40;;;;;;;2.38;0.77;;;21.50;72.80;;;;;;5102415;28;20291;-83
2023/07/29 04:04:08;;;;;;;0.20;0.20;;;21.50;72.80;;;;;;5102841;28;20224;-81
2023/07/29 04:06:37;;;;;;;1.58;0.35;;;21.50;73.00;;;;;;5101098;28;20209;-82
2023/07/29 04:09:07;;;;;;;3.72;1.23;;;21.60;73.00;;;;;;5088601;28;20203;-83
2023/07/29 04:11:36;;;;;;;1.27;0.85;;;21.60;73.30;;;;;;5100253;28;20193;-84
2023/07/29 04:14:06;;;;;;;0.75;0.60;;;21.60;73.30;;;;;;5104686;28;20197;-82
2023/07/29 04:16:34;;;;;;;0.32;0.32;;;21.60;73.20;;;;;;5105696;28;20197;-82
2023/07/29 04:19:04;;;;;;;1.13;0.82;;;21.70;73.10;;;;;;5089798;28;20546;-81
2023/07/29 04:21:33;;;;;;;0.80;0.68;;;21.70;73.30;;;;;;5101629;28;21595;-82
2023/07/29 04:24:01;;;;;;;1.80;0.47;;;21.80;73.40;;;;;;5099064;28;20201;-83
2023/07/29 04:26:30;;;;;;;0.60;0.52;;;21.80;73.30;;;;;;5106686;28;20437;-83
2023/07/29 04:28:59;;;;;;;1.10;0.70;;;21.90;73.30;;;;;;5107719;28;20280;-80
2023/07/29 04:31:29;;;;;;;0.47;0.47;;;21.90;73.40;;;;;;5104245;28;20197;-81
2023/07/29 04:33:59;;;;;;;0.68;0.60;;;22.00;73.50;;;;;;5102623;28;20189;-83
2023/07/29 04:36:28;;;;;;;0.75;0.50;;;22.00;73.40;;;;;;5110962;28;20265;-83
2023/07/29 04:38:57;;;;;;;0.30;0.30;;;22.00;73.30;;;;;;5105729;28;20193;-81
2023/07/29 04:41:26;;;;;;;1.40;0.68;;;22.10;73.40;;;;;;5103779;28;20213;-81
2023/07/29 04:43:54;;;;;;;0.40;0.40;;;22.20;73.50;;;;;;5107979;28;20189;-82
2023/07/29 04:46:23;;;;;;;0.30;0.30;;;22.20;73.40;;;;;;5108256;28;20220;-82
2023/07/29 04:48:53;;;;;;;0.45;0.45;;;22.30;73.40;;;;;;5104341;28;20197;-82
2023/07/29 04:51:21;;;;;;;0.45;0.45;;;22.40;73.30;;;;;;5089612;28;20226;-84
2023/07/29 04:53:50;;;;;;;0.70;0.40;;;22.40;73.20;;;;;;5107741;28;20210;-83
2023/07/29 04:56:19;;;;;;;0.40;0.40;;;22.50;73.10;;;;;;5111002;28;20220;-84
2023/07/29 04:58:47;;;;;;;0.30;0.30;;;22.50;72.90;;;;;;5112454;28;20703;-84
2023/07/29 05:01:16;;;;;;;0.20;0.20;;;22.60;72.90;;;;;;5111277;28;20194;-84
2023/07/29 05:03:44;;;;;;;0.45;0.45;;;22.70;72.90;;;;;;5109031;28;20189;-85
2023/07/29 05:06:14;;;;;;;0.20;0.15;;;22.70;72.90;;;;;;5107504;28;20243;-85
2023/07/29 05:08:43;;;;;;;0.65;0.40;;;22.80;73.20;;;;;;5107495;28;20189;-83
2023/07/29 05:11:11;;;;;;;0.40;0.40;;;22.90;73.00;;;;;;5106172;28;20200;-86
2023/07/29 05:13:39;;;;;;;0.55;0.55;;;22.90;72.90;;;;;;5111407;28;20211;-86
2023/07/29 05:16:08;;;;;;;0.85;0.85;;;23.00;72.90;;;;;;5111540;28;20201;-85
2023/07/29 05:18:37;;;;;;;0.50;0.50;;;23.10;72.60;;;;;;5110402;28;20445;-85
2023/07/29 05:21:05;;;;;;;0.20;0.20;;;23.20;72.80;;;;;;5110504;28;20833;-85
2023/07/29 05:23:35;;;;;;;0.75;0.57;;;23.20;72.60;;;;;;5109151;28;20207;-85
2023/07/29 05:26:05;;;;;;;0.47;0.35;;;23.30;72.60;;;;;;5091186;28;20759;-83
2023/07/29 05:28:33;;;;;;;0.75;0.65;;;23.30;72.40;;;;;;5109480;28;20205;-84
2023/07/29 05:31:02;;;;;;;0.85;0.32;;;23.40;72.40;;;;;;5111101;28;20559;-85
2023/07/29 05:33:31;;;;;;;1.27;0.77;;;23.50;72.50;;;;;;5110268;28;20200;-84
2023/07/29 05:36:00;;;;;;;0.50;0.40;;;23.60;72.50;;;;;;5112456;28;20197;-84
2023/07/29 05:38:28;;;;;;;0.85;0.43;;;23.60;72.40;;;;;;5111713;28;20201;-85
2023/07/29 05:40:58;;;;;;;1.02;0.73;;;23.70;72.30;;;;;;5107761;28;20201;-83
2023/07/29 05:43:28;;;;;;;1.33;0.88;;;23.70;72.20;;;;;;5110133;28;20620;-85
2023/07/29 05:45:56;;;;;;;0.77;0.77;;;23.80;72.20;;;;;;5090650;28;20658;-84
2023/07/29 05:48:25;;;;;;;0.68;0.50;;;23.90;72.80;;;;;;5093205;28;20199;-83
2023/07/29 05:50:54;;;;;;;1.10;1.00;;;24.00;72.70;;;;;;5102019;28;20193;-82
2023/07/29 05:53:22;;;;;;;1.60;0.75;;;24.10;72.70;;;;;;5107376;27;20211;-81
2023/07/29 05:55:51;;;;;;;2.35;1.00;;;24.10;72.60;;;;;;5105016;28;20208;-81
2023/07/29 05:58:21;;;;;;;1.17;0.90;;;24.20;72.50;;;;;;5113264;28;20205;-82
2023/07/29 06:00:50;;;;;;;0.45;0.40;;;24.30;72.40;;;;;;5105390;27;20196;-81
2023/07/29 06:03:19;;;;;;;0.50;0.50;;;24.30;72.20;;;;;;5090294;28;20193;-80
2023/07/29 06:05:49;;;;;;;0.93;0.57;;;24.50;72.10;;;;;;5108344;28;20694;-80
2023/07/29 06:08:22;;;;;;;0.40;0.30;;;24.60;71.90;;;;;;5107576;28;20223;-83
2023/07/29 06:10:50;;;;;;;9.65;0.63;;;24.60;71.60;;;;;;5106666;28;20280;-84
2023/07/29 06:13:20;;;;;;;1.20;0.73;;;24.70;71.30;;;;;;5104558;27;20212;-83
2023/07/29 06:15:51;;;;;;;0.63;0.57;;;24.80;70.40;;;;;;5108248;28;20201;-83
2023/07/29 06:18:19;;;;;;;0.68;0.68;;;24.90;70.20;;;;;;5112508;28;20200;-84
2023/07/29 06:20:48;;;;;;;1.48;0.60;;;25.00;69.70;;;;;;5108234;28;20223;-83
2023/07/29 06:23:16;;;;;;;0.90;0.60;;;25.00;68.60;;;;;;5112204;28;20225;-83
2023/07/29 06:25:44;;;;;;;3.92;0.88;;;25.10;67.90;;;;;;5107426;28;20200;-83
2023/07/29 06:28:13;;;;;;;3.92;0.47;;;25.20;67.10;;;;;;5112333;28;20577;-84
2023/07/29 06:30:44;;;;;;;0.35;0.30;;;25.30;66.60;;;;;;5105796;28;20332;-82
2023/07/29 06:33:13;;;;;;;0.20;0.20;;;25.40;66.80;;;;;;5091446;28;20273;-84
2023/07/29 06:35:43;;;;;;;0.55;0.50;;;25.60;67.00;;;;;;5106269;28;20200;-83
2023/07/29 06:38:11;;;;;;;0.60;0.55;;;25.60;66.40;;;;;;5108174;28;20196;-84
2023/07/29 06:40:40;;;;;;;0.80;0.50;;;25.70;65.80;;;;;;5106914;28;20192;-81
2023/07/29 06:43:08;;;;;;;1.05;0.45;;;25.80;66.00;;;;;;5104763;28;20189;-82
2023/07/29 06:45:38;;;;;;;0.68;0.50;;;25.90;66.00;;;;;;5098050;28;20306;-81
2023/07/29 06:48:08;;;;;;;0.57;0.45;;;26.00;65.00;;;;;;5109266;28;20221;-84
2023/07/29 06:50:37;;;;;;;0.57;0.43;;;26.10;65.00;;;;;;5107577;28;20185;-82
2023/07/29 06:53:05;;;;;;;0.50;0.35;;;26.20;65.00;;;;;;5107592;28;20197;-83
2023/07/29 06:55:35;;;;;;;0.35;0.35;;;26.30;64.60;;;;;;5091823;28;20200;-81
2023/07/29 06:58:05;;;;;;;0.38;0.30;;;26.40;64.10;;;;;;5101226;28;20194;-83
2023/07/29 07:00:33;;;;;;;0.20;0.20;;;26.40;62.70;;;;;;5108847;28;20229;-81
2023/07/29 07:03:02;;;;;;;0.20;0.20;;;26.50;62.90;;;;;;5110517;28;20186;-84
2023/07/29 07:05:32;;;;;;;0.30;0.30;;;26.60;62.90;;;;;;5074626;28;20196;-82
2023/07/29 07:08:01;;;;;;;0.32;0.30;;;26.70;62.70;;;;;;5102622;28;20322;-79
2023/07/29 07:10:29;;;;;;;0.30;0.30;;;26.80;62.50;;;;;;5100212;28;20616;-79
2023/07/29 07:12:59;;;;;;;0.35;0.35;;;26.80;61.40;;;;;;5110276;28;20196;-82
2023/07/29 07:15:28;;;;;;;0.25;0.25;;;26.90;62.30;;;;;;5109470;28;20224;-80
2023/07/29 07:17:57;;;;;;;0.55;0.55;;;27.00;61.40;;;;;;5102940;28;20582;-82
2023/07/29 07:20:26;;;;;;;2.03;0.55;;;27.10;60.50;;;;;;5071717;28;20233;-82
2023/07/29 07:22:56;;;;;;;0.32;0.32;;;27.10;60.20;;;;;;5088640;28;20691;-83
2023/07/29 07:25:26;;;;;;;0.20;0.20;;;27.20;60.20;;;;;;5107852;28;20197;-83
2023/07/29 07:27:54;;;;;;;0.30;0.30;;;27.30;60.50;;;;;;5109315;28;20221;-82
2023/07/29 07:30:25;;;;;;;0.40;0.40;;;27.30;59.90;;;;;;5107182;28;20268;-83
2023/07/29 07:32:56;;;;;;;0.47;0.47;;;27.40;59.90;;;;;;5106861;28;20216;-84
2023/07/29 07:35:25;;;;;;;0.45;0.38;;;27.50;59.80;;;;;;5105442;28;20266;-82
2023/07/29 07:37:54;;;;;;;0.20;0.20;;;27.50;59.10;;;;;;5101958;28;20197;-83
2023/07/29 07:40:24;;;;;;;0.30;0.30;;;27.60;58.90;;;;;;5096833;28;20208;-82
2023/07/29 07:42:53;;;;;;;0.93;0.85;;;27.60;59.20;;;;;;5088499;28;20193;-82
2023/07/29 07:45:22;;;;;;;0.45;0.40;;;27.70;58.70;;;;;;5104841;28;20197;-81
2023/07/29 07:47:53;;;;;;;0.75;0.50;;;27.60;58.30;;;;;;5085248;28;20248;-83
2023/07/29 07:50:23;;;;;;;0.30;0.30;;;27.70;57.80;;;;;;5103885;28;20216;-83
2023/07/29 07:52:53;;;;;;;1.60;0.70;;;27.80;57.80;;;;;;5083398;28;20197;-81
2023/07/29 07:55:23;;;;;;;2.50;0.93;;;27.80;58.10;;;;;;5103198;28;20726;-81
2023/07/29 07:57:52;;;;;;;2.50;0.30;;;27.90;57.50;;;;;;5088166;28;20270;-82
2023/07/29 08:00:21;;;;;;;0.20;0.20;;;27.90;57.40;;;;;;5104432;28;20204;-81
2023/07/29 08:02:49;;;;;;;0.77;0.60;;;28.00;57.30;;;;;;5105022;28;20197;-82
2023/07/29 08:05:18;;;;;;;0.95;0.50;;;28.00;56.80;;;;;;5110985;28;20203;-84
2023/07/29 08:07:54;;;;;;;0.47;0.47;;;28.00;57.10;;;;;;5105284;28;20296;-79
2023/07/29 08:10:24;;;;;;;0.20;0.20;;;28.10;56.00;;;;;;5110527;28;20247;-80
2023/07/29 08:12:52;;;;;;;0.32;0.30;;;28.10;56.30;;;;;;5108697;28;21812;-79
2023/07/29 08:15:21;;;;;;;0.40;0.40;;;28.20;56.60;;;;;;5115038;28;20193;-80
2023/07/29 08:17:50;;;;;;;1.08;0.80;;;28.20;56.90;;;;;;5087604;28;20724;-81
2023/07/29 08:20:18;;;;;;;0.20;0.20;;;28.30;56.50;;;;;;5112705;28;20225;-80
2023/07/29 08:22:47;;;;;;;0.20;0.20;;;28.30;56.80;;;;;;5105206;28;20751;-81
2023/07/29 08:25:16;;;;;;;0.32;0.32;;;28.30;56.10;;;;;;5112216;28;20204;-79
2023/07/29 08:27:47;;;;;;;0.70;0.70;;;28.30;55.80;;;;;;5112136;27;20216;-79
2023/07/29 08:30:15;;;;;;;1.52;0.95;;;28.40;55.20;;;;;;5112279;28;20310;-80
2023/07/29 08:32:44;;;;;;;0.30;0.30;;;28.40;55.50;;;;;;5090506;28;20200;-79
2023/07/29 08:35:13;;;;;;;0.40;0.40;;;28.50;55.70;;;;;;5108312;28;20200;-79
2023/07/29 08:37:41;;;;;;;0.45;0.32;;;28.50;55.80;;;;;;5108987;28;20185;-80
2023/07/29 08:40:11;;;;;;;3.50;0.95;;;28.60;56.10;;;;;;5086712;28;20196;-81
2023/07/29 08:42:41;;;;;;;0.65;0.40;;;28.70;56.00;;;;;;5107980;27;20204;-79
2023/07/29 08:45:12;;;;;;;0.20;0.20;;;28.70;55.50;;;;;;5112564;28;20585;-79
2023/07/29 08:47:41;;;;;;;1.00;0.47;;;28.80;55.70;;;;;;5109974;28;20195;-79
2023/07/29 08:50:10;;;;;;;0.50;0.50;;;28.80;55.10;;;;;;5109248;27;20550;-80
2023/07/29 08:52:43;;;;;;;0.20;0.20;;;28.80;54.50;;;;;;5108719;28;20285;-78
2023/07/29 08:55:11;;;;;;;3.53;1.05;;;28.90;54.70;;;;;;5109056;27;20197;-77
2023/07/29 08:57:40;;;;;;;0.88;0.65;;;28.90;54.90;;;;;;5106234;28;20822;-79
2023/07/29 09:00:12;;;;;;;0.40;0.40;;;28.90;55.20;;;;;;5109832;28;20204;-80
2023/07/29 09:02:41;;;;;;;0.82;0.60;;;29.00;55.40;;;;;;5109926;28;20276;-79
2023/07/29 09:05:09;;;;;;;0.20;0.20;;;29.10;55.60;;;;;;5112135;28;20645;-80
2023/07/29 09:07:39;;;;;;;0.70;0.70;;;29.10;55.60;;;;;;5105290;28;20200;-80
2023/07/29 09:10:11;;;;;;;0.20;0.20;;;29.10;55.00;;;;;;5104568;28;20848;-79
2023/07/29 09:12:40;;;;;;;0.20;0.20;;;29.20;54.70;;;;;;5108588;28;20209;-81
2023/07/29 09:15:11;;;;;;;0.52;0.30;;;29.10;54.10;;;;;;5088293;28;20606;-78
2023/07/29 09:17:42;;;;;;;0.70;0.45;;;29.10;53.50;;;;;;5102025;28;20226;-80
2023/07/29 09:20:11;;;;;;;1.65;0.85;;;29.20;53.40;;;;;;5101787;28;20229;-79
2023/07/29 09:22:40;;;;;;;0.63;0.40;;;29.20;53.50;;;;;;5106532;28;20197;-80
2023/07/29 09:25:10;;;;;;;0.50;0.50;;;29.20;53.20;;;;;;5108937;28;20225;-79
2023/07/29 09:27:39;;;;;;;4.15;0.65;;;29.30;53.60;;;;;;5107674;28;20200;-80
2023/07/29 09:30:16;;;;;;;0.98;0.50;;;29.40;53.30;;;;;;5110393;28;20274;-79
2023/07/29 09:32:46;;;;;;;0.30;0.30;;;29.50;53.50;;;;;;5108248;28;20199;-78
2023/07/29 09:35:15;;;;;;;0.90;0.73;;;29.50;53.60;;;;;;5099986;28;20639;-81
2023/07/29 09:37:45;;;;;;;0.30;0.30;;;29.60;53.50;;;;;;5103106;28;20197;-79
2023/07/29 09:40:16;;;;;;;0.30;0.30;;;29.60;53.50;;;;;;5104868;27;20085;-80
2023/07/29 09:42:51;;;;;;;0.55;0.50;;;29.60;53.20;;;;;;5099237;27;20649;-80
2023/07/29 09:45:23;;;;;;;0.28;0.28;;;29.70;52.60;;;;;;5093211;28;20601;-80
2023/07/29 09:47:55;;;;;;;0.60;0.50;;;29.70;52.50;;;;;;5087317;28;20281;-80
2023/07/29 09:50:25;;;;;;;0.63;0.35;;;29.80;53.00;;;;;;5099495;28;20220;-80
2023/07/29 09:52:54;;;;;;;0.30;0.30;;;29.90;53.30;;;;;;5108720;27;20648;-80
2023/07/29 09:55:24;;;;;;;0.32;0.32;;;29.90;52.80;;;;;;5101212;28;20197;-80
2023/07/29 09:57:55;;;;;;;0.30;0.30;;;30.00;53.00;;;;;;5097983;28;20563;-81
2023/07/29 10:00:24;;;;;;;0.35;0.30;;;30.00;53.10;;;;;;5101528;28;20197;-80
2023/07/29 10:02:54;;;;;;;0.40;0.40;;;30.00;53.40;;;;;;5107072;28;20204;-81
2023/07/29 10:05:24;;;;;;;0.57;0.40;;;30.10;52.80;;;;;;5102656;27;20649;-82
2023/07/29 10:07:53;;;;;;;0.20;0.20;;;30.20;53.10;;;;;;5100216;27;20209;-80
2023/07/29 10:10:22;;;;;;;0.30;0.30;;;30.30;52.60;;;;;;5109679;28;20211;-80
2023/07/29 10:12:51;;;;;;;0.95;0.60;;;30.30;52.90;;;;;;5110780;28;20192;-81
2023/07/29 10:15:21;;;;;;;0.30;0.30;;;30.40;52.80;;;;;;5104021;28;20193;-80
2023/07/29 10:17:53;;;;;;;0.30;0.30;;;30.40;51.90;;;;;;5088740;28;20186;-81
2023/07/29 10:20:22;;;;;;;0.40;0.40;;;30.50;52.00;;;;;;5109782;28;20687;-80
2023/07/29 10:22:51;;;;;;;2.25;0.95;;;30.50;51.60;;;;;;5107542;28;20229;-81
2023/07/29 10:25:23;;;;;;;0.20;0.20;;;30.50;50.90;;;;;;5108427;28;20235;-81
2023/07/29 10:27:57;;;;;;;0.35;0.35;;;30.70;50.90;;;;;;5109384;28;20189;-81
2023/07/29 10:30:26;;;;;;;0.20;0.20;;;30.70;51.10;;;;;;5108692;28;20644;-79
2023/07/29 10:32:59;;;;;;;0.55;0.55;;;30.80;51.20;;;;;;5109058;28;20209;-80
2023/07/29 10:35:28;;;;;;;0.35;0.28;;;30.80;50.50;;;;;;5103947;28;20185;-81
2023/07/29 10:37:56;;;;;;;0.22;0.22;;;30.90;51.10;;;;;;5109802;28;20189;-80
2023/07/29 10:40:25;;;;;;;0.28;0.28;;;30.90;50.70;;;;;;5108574;28;20254;-79
2023/07/29 10:43:12;;;;;;;1.23;0.35;;;30.90;50.80;;;;;;5116462;27;20206;-80
2023/07/29 10:45:42;;;;;;;1.13;0.50;;;31.00;50.20;;;;;;5102436;28;20663;-79
2023/07/29 10:48:14;;;;;;;0.30;0.30;;;31.10;50.50;;;;;;5103449;28;20200;-81
2023/07/29 10:50:43;;;;;;;0.35;0.30;;;31.00;50.80;;;;;;5106376;27;20206;-80
2023/07/29 10:53:11;;;;;;;0.20;0.20;;;31.10;50.50;;;;;;5102411;27;20205;-80
2023/07/29 10:55:41;;;;;;;0.45;0.45;;;31.10;49.70;;;;;;5103071;28;20201;-81
2023/07/29 10:58:13;;;;;;;0.20;0.20;;;31.10;50.10;;;;;;5106760;27;20202;-80
2023/07/29 11:00:44;;;;;;;0.40;0.40;;;31.20;50.50;;;;;;5104467;28;20778;-79
2023/07/29 11:03:16;;;;;;;0.73;0.50;;;31.30;50.60;;;;;;5111900;28;20185;-79
2023/07/29 11:05:48;;;;;;;1.35;0.30;;;31.40;50.50;;;;;;5102966;28;20192;-80
2023/07/29 11:08:22;;;;;;;0.30;0.30;;;31.40;50.80;;;;;;5104152;28;20608;-79
2023/07/29 11:11:08;;;;;;;0.30;0.30;;;31.40;49.20;;;;;;5100759;28;20711;-79
2023/07/29 11:13:38;;;;;;;0.30;0.30;;;31.50;49.40;;;;;;5106235;28;20558;-80
2023/07/29 11:16:07;;;;;;;0.25;0.25;;;31.60;49.50;;;;;;5103002;28;20284;-81
2023/07/29 11:18:37;;;;;;;0.20;0.20;;;31.70;49.90;;;;;;5105914;28;20201;-82
2023/07/29 11:21:06;;;;;;;0.30;0.30;;;31.70;49.80;;;;;;5106087;28;20351;-81
2023/07/29 11:23:37;;;;;;;0.52;0.40;;;31.80;49.00;;;;;;5108480;28;20199;-80
2023/07/29 11:26:06;;;;;;;0.38;0.38;;;31.80;49.20;;;;;;5106113;28;20196;-81
2023/07/29 11:28:40;;;;;;;0.40;0.40;;;31.90;49.10;;;;;;5101652;28;20578;-83
2023/07/29 11:31:09;;;;;;;1.45;0.65;;;31.90;48.70;;;;;;5106700;28;20208;-83
2023/07/29 11:33:40;;;;;;;0.43;0.35;;;31.90;47.70;;;;;;5106686;28;20201;-83
2023/07/29 11:36:23;;;;;;;0.20;0.20;;;32.00;47.40;;;;;;5106744;28;20267;-83
2023/07/29 11:38:52;;;;;;;0.20;0.20;;;32.00;47.60;;;;;;5107085;28;20228;-82
2023/07/29 11:41:22;;;;;;;0.22;0.22;;;32.00;47.70;;;;;;5104439;28;20195;-85
2023/07/29 11:43:51;;;;;;;0.57;0.57;;;32.10;48.10;;;;;;5109417;28;20208;-82
2023/07/29 11:46:23;;;;;;;0.20;0.20;;;32.20;48.50;;;;;;5107041;28;20205;-85
2023/07/29 11:48:55;;;;;;;0.20;0.20;;;32.20;48.40;;;;;;5112517;27;20184;-83
2023/07/29 11:51:24;;;;;;;1.10;0.93;;;32.30;48.30;;;;;;5104174;27;20200;-80
2023/07/29 11:53:53;;;;;;;0.40;0.40;;;32.30;48.30;;;;;;5110198;28;20198;-82
2023/07/29 11:56:21;;;;;;;0.20;0.20;;;32.40;48.60;;;;;;5108828;28;20199;-80
2023/07/29 11:58:50;;;;;;;0.20;0.20;;;32.40;48.30;;;;;;5101266;28;20185;-82
2023/07/29 12:01:19;;;;;;;1.20;0.63;;;32.50;48.40;;;;;;5107043;28;20224;-82
2023/07/29 12:03:48;;;;;;;0.28;0.28;;;32.50;47.90;;;;;;5100935;28;20243;-81
2023/07/29 12:06:18;;;;;;;0.20;0.20;;;32.60;48.20;;;;;;5106904;28;20197;-82
2023/07/29 12:08:47;;;;;;;0.20;0.20;;;32.60;48.20;;;;;;5112263;28;20198;-83
2023/07/29 12:11:15;;;;;;;0.45;0.45;;;32.60;47.80;;;;;;5105392;28;20463;-82
2023/07/29 12:13:44;;;;;;;0.25;0.25;;;32.60;47.50;;;;;;5108673;28;20189;-81
2023/07/29 12:16:18;;;;;;;0.73;0.50;;;32.70;47.80;;;;;;5111237;28;20320;-81
2023/07/29 12:18:48;;;;;;;0.30;0.30;;;32.70;47.90;;;;;;5100620;28;20201;-83
2023/07/29 12:21:19;;;;;;;0.75;0.47;;;32.70;47.30;;;;;;5107696;28;20220;-83
2023/07/29 12:23:48;;;;;;;1.13;0.85;;;32.70;46.80;;;;;;5112322;28;20305;-80
2023/07/29 12:26:16;;;;;;;0.40;0.40;;;32.70;45.70;;;;;;5107875;27;20243;-83
2023/07/29 12:28:47;;;;;;;0.20;0.20;;;32.60;45.90;;;;;;5109760;28;20189;-83
2023/07/29 12:31:16;;;;;;;0.30;0.30;;;32.70;46.20;;;;;;5109981;28;20204;-83
2023/07/29 12:33:44;;;;;;;0.35;0.30;;;32.60;45.70;;;;;;5111394;27;20246;-84
2023/07/29 12:36:12;;;;;;;0.40;0.40;;;32.60;46.10;;;;;;5111724;28;20200;-81
2023/07/29 12:38:44;;;;;;;0.30;0.30;;;32.60;46.40;;;;;;5110886;28;20207;-79
2023/07/29 12:41:12;;;;;;;0.65;0.57;;;32.60;46.20;;;;;;5106106;27;20192;-82
2023/07/29 12:43:40;;;;;;;0.45;0.45;;;32.60;46.30;;;;;;5111737;28;20652;-82
2023/07/29 12:46:09;;;;;;;0.57;0.40;;;32.60;46.20;;;;;;5109006;27;20204;-83
2023/07/29 12:48:37;;;;;;;0.30;0.30;;;32.60;45.80;;;;;;5105524;28;20198;-84
2023/07/29 12:51:05;;;;;;;0.25;0.25;;;32.50;46.10;;;;;;5104316;28;20294;-80
2023/07/29 12:53:34;;;;;;;0.47;0.47;;;32.60;46.40;;;;;;5109879;28;20676;-84
2023/07/29 12:56:04;;;;;;;0.70;0.60;;;32.60;46.60;;;;;;5108016;27;20536;-84
2023/07/29 12:58:32;;;;;;;0.75;0.55;;;32.60;46.50;;;;;;5109206;28;20432;-83
2023/07/29 13:01:01;;;;;;;1.40;0.40;;;32.70;46.70;;;;;;5110593;27;20665;-83